Time;durP1;ratioP1;P1;durP2;ratioP2;P2;SDS_P1;SDS_P2;PMS_P1;PMS_P2;Temp;Humidity;BMP_temperature;BMP_pressure;BME280_temperature;BME280_humidity;BME280_pressure;Samples;Min_cycle;Max_cycle;Signal;HPM_P1;HPM_P2
2021/12/29 00:01:01;;;;;;;18.20;10.77;;;7.40;99.90;;;;;;5018481;28;20085;-85
2021/12/29 00:03:27;;;;;;;14.73;8.75;;;7.40;99.90;;;;;;5020639;28;20052;-85
2021/12/29 00:05:53;;;;;;;17.30;10.90;;;7.40;99.90;;;;;;5020268;28;20051;-85
2021/12/29 00:08:18;;;;;;;12.52;8.65;;;7.40;99.90;;;;;;5018515;28;20691;-85
2021/12/29 00:10:46;;;;;;;22.20;8.77;;;7.40;99.90;;;;;;5019220;28;20056;-85
2021/12/29 00:13:12;;;;;;;13.30;7.85;;;7.40;99.90;;;;;;5018789;28;20132;-84
2021/12/29 00:15:37;;;;;;;15.00;8.02;;;7.40;99.90;;;;;;5017937;28;20045;-84
2021/12/29 00:18:03;;;;;;;14.48;7.85;;;7.40;99.90;;;;;;5019156;28;20057;-84
2021/12/29 00:20:31;;;;;;;8.65;6.30;;;7.40;99.90;;;;;;5018610;28;20052;-84
2021/12/29 00:22:59;;;;;;;8.98;6.53;;;7.40;99.90;;;;;;5019640;28;20075;-84
2021/12/29 00:25:25;;;;;;;10.75;7.93;;;7.40;99.90;;;;;;5020043;28;20057;-84
2021/12/29 00:27:54;;;;;;;7.05;6.07;;;7.40;99.90;;;;;;5019680;28;20053;-83
2021/12/29 00:30:21;;;;;;;13.90;7.57;;;7.40;99.90;;;;;;5017871;28;20057;-83
2021/12/29 00:32:46;;;;;;;8.23;6.32;;;7.40;99.90;;;;;;5020265;28;20056;-83
2021/12/29 00:35:14;;;;;;;12.05;8.13;;;7.10;99.90;;;;;;5019790;28;20061;-83
2021/12/29 00:37:40;;;;;;;9.13;6.13;;;7.40;99.90;;;;;;5017714;28;20487;-83
2021/12/29 00:40:07;;;;;;;10.20;6.63;;;7.40;99.90;;;;;;5027127;28;20087;-82
2021/12/29 00:42:33;;;;;;;12.60;7.30;;;7.40;99.90;;;;;;5039480;28;20107;-83
2021/12/29 00:44:59;;;;;;;11.38;7.80;;;7.40;99.90;;;;;;5039073;28;20676;-83
2021/12/29 00:47:29;;;;;;;9.70;6.38;;;7.40;99.90;;;;;;5039257;28;20283;-82
2021/12/29 00:49:55;;;;;;;8.63;6.30;;;7.40;99.90;;;;;;5021784;28;20063;-82
2021/12/29 00:52:20;;;;;;;7.70;4.97;;;7.40;99.90;;;;;;5020592;28;20041;-82
2021/12/29 00:54:46;;;;;;;6.47;5.38;;;7.40;99.90;;;;;;5021438;28;20107;-82
2021/12/29 00:57:12;;;;;;;7.60;4.93;;;7.40;99.90;;;;;;5020235;28;20040;-82
2021/12/29 00:59:38;;;;;;;8.95;5.63;;;7.40;99.90;;;;;;5021502;28;20057;-82
2021/12/29 01:02:05;;;;;;;9.80;6.38;;;7.40;99.90;;;;;;5012021;28;20359;-83
2021/12/29 01:04:30;;;;;;;8.43;6.35;;;7.40;99.90;;;;;;5037411;28;20041;-83
2021/12/29 01:06:56;;;;;;;8.63;5.82;;;7.30;99.90;;;;;;5020491;28;20087;-83
2021/12/29 01:09:22;;;;;;;7.72;5.75;;;7.30;99.90;;;;;;5020673;28;20037;-82
2021/12/29 01:11:48;;;;;;;8.73;6.05;;;7.40;99.90;;;;;;5020025;28;20056;-82
2021/12/29 01:14:13;;;;;;;11.77;6.65;;;7.40;99.90;;;;;;5020352;28;20172;-83
2021/12/29 01:16:39;;;;;;;11.73;7.18;;;7.40;99.90;;;;;;5038711;28;20049;-82
2021/12/29 01:19:14;;;;;;;8.93;6.28;;;7.40;99.90;;;;;;5038042;28;20090;-82
2021/12/29 01:21:44;;;;;;;11.35;7.78;;;7.40;99.90;;;;;;5020202;28;20048;-82
2021/12/29 01:24:11;;;;;;;10.43;6.50;;;7.40;99.90;;;;;;5038382;28;20057;-82
2021/12/29 01:26:37;;;;;;;12.60;7.30;;;7.40;99.90;;;;;;5019804;28;20160;-81
2021/12/29 01:29:03;;;;;;;10.52;6.80;;;7.50;99.90;;;;;;5021289;28;20106;-81
2021/12/29 01:31:29;;;;;;;11.73;6.13;;;7.50;99.90;;;;;;5038976;28;20071;-82
2021/12/29 01:33:55;;;;;;;10.95;7.75;;;7.50;99.90;;;;;;5037104;28;20586;-82
2021/12/29 01:36:21;;;;;;;14.13;8.90;;;7.50;99.90;;;;;;5039106;28;20818;-82
2021/12/29 01:38:46;;;;;;;13.02;8.10;;;7.50;99.90;;;;;;5021457;28;20052;-83
2021/12/29 01:41:12;;;;;;;15.43;9.50;;;7.50;99.90;;;;;;5019769;28;20045;-83
2021/12/29 01:43:38;;;;;;;12.60;7.75;;;7.50;99.90;;;;;;5035381;28;20766;-83
2021/12/29 01:46:03;;;;;;;16.98;8.38;;;7.50;99.90;;;;;;5020714;28;20076;-82
2021/12/29 01:48:29;;;;;;;16.42;9.88;;;7.50;99.90;;;;;;5020544;28;20049;-82
2021/12/29 01:50:56;;;;;;;19.45;9.38;;;7.60;99.90;;;;;;5020668;28;20837;-82
2021/12/29 01:53:24;;;;;;;15.98;8.70;;;7.50;99.90;;;;;;5018442;28;20055;-83
2021/12/29 01:55:51;;;;;;;16.33;9.52;;;7.60;99.90;;;;;;5038868;28;20579;-83
2021/12/29 01:58:18;;;;;;;20.75;10.10;;;7.50;99.90;;;;;;5038989;28;20045;-82
2021/12/29 02:00:44;;;;;;;14.70;8.13;;;7.60;99.90;;;;;;5019621;28;20053;-83
2021/12/29 02:03:10;;;;;;;14.57;9.68;;;7.50;99.90;;;;;;5039249;28;20049;-82
2021/12/29 02:05:38;;;;;;;24.45;9.35;;;7.50;99.90;;;;;;5038456;28;20052;-83
2021/12/29 02:08:05;;;;;;;23.25;12.15;;;7.50;99.90;;;;;;5019720;28;20090;-82
2021/12/29 02:10:35;;;;;;;21.48;12.45;;;7.50;99.90;;;;;;5020874;28;20048;-82
2021/12/29 02:13:00;;;;;;;20.73;9.55;;;7.50;99.90;;;;;;5021289;28;20049;-82
2021/12/29 02:15:26;;;;;;;18.77;12.18;;;7.50;99.90;;;;;;5020822;28;20068;-82
2021/12/29 02:17:52;;;;;;;19.83;11.48;;;7.60;99.90;;;;;;5021136;28;20040;-82
2021/12/29 02:20:21;;;;;;;22.27;11.45;;;7.60;99.90;;;;;;5021018;28;20097;-81
2021/12/29 02:22:53;;;;;;;22.48;12.23;;;7.60;99.90;;;;;;5021049;28;20881;-82
2021/12/29 02:25:32;;;;;;;28.27;12.02;;;7.60;99.90;;;;;;5021446;28;20088;-82
2021/12/29 02:27:59;;;;;;;19.20;12.98;;;7.60;99.90;;;;;;5021501;28;20045;-82
2021/12/29 02:30:26;;;;;;;18.88;10.43;;;7.60;99.90;;;;;;5038514;28;20053;-81
2021/12/29 02:32:59;;;;;;;23.55;11.25;;;7.60;99.90;;;;;;5039835;28;20045;-81
2021/12/29 02:35:25;;;;;;;20.92;12.23;;;7.60;99.90;;;;;;5024502;28;20095;-81
2021/12/29 02:37:51;;;;;;;20.48;12.77;;;7.60;99.90;;;;;;5024194;28;20381;-82
2021/12/29 02:40:17;;;;;;;19.23;11.63;;;7.70;99.90;;;;;;5024488;28;20061;-82
2021/12/29 02:42:43;;;;;;;16.27;11.85;;;7.70;99.90;;;;;;5023713;28;20060;-81
2021/12/29 02:45:18;;;;;;;20.33;10.02;;;7.70;99.90;;;;;;5024256;28;20051;-81
2021/12/29 02:47:44;;;;;;;16.20;9.98;;;7.70;99.90;;;;;;5024525;28;20663;-81
2021/12/29 02:50:10;;;;;;;17.88;11.13;;;7.70;99.90;;;;;;5023398;28;20099;-81
2021/12/29 02:52:36;;;;;;;17.30;10.75;;;7.70;99.90;;;;;;5022867;28;20056;-81
2021/12/29 02:55:02;;;;;;;17.25;10.15;;;7.70;99.90;;;;;;5042238;28;20048;-82
2021/12/29 02:57:28;;;;;;;18.83;9.50;;;7.70;99.90;;;;;;5022542;28;20052;-83
2021/12/29 02:59:54;;;;;;;14.20;8.30;;;7.80;99.90;;;;;;5023174;28;20049;-83
2021/12/29 03:02:20;;;;;;;15.85;8.50;;;7.80;99.90;;;;;;5041047;28;20044;-84
2021/12/29 03:04:46;;;;;;;16.48;9.82;;;7.80;99.90;;;;;;5023188;28;20057;-84
2021/12/29 03:07:11;;;;;;;11.10;7.30;;;7.80;99.90;;;;;;5041368;28;20510;-84
2021/12/29 03:09:37;;;;;;;12.65;8.55;;;7.80;99.90;;;;;;5041418;28;20131;-84
2021/12/29 03:12:03;;;;;;;19.10;10.38;;;7.80;99.90;;;;;;5040764;28;20144;-84
2021/12/29 03:14:29;;;;;;;18.40;8.38;;;7.80;99.90;;;;;;5023145;28;20053;-84
2021/12/29 03:16:54;;;;;;;9.82;6.70;;;7.90;99.90;;;;;;5023584;28;20478;-84
2021/12/29 03:19:20;;;;;;;15.02;7.30;;;7.90;99.90;;;;;;5022952;28;20056;-83
2021/12/29 03:21:45;;;;;;;16.27;9.55;;;7.90;99.90;;;;;;5023595;28;20052;-84
2021/12/29 03:24:12;;;;;;;12.73;9.27;;;7.90;99.90;;;;;;5041580;28;20041;-83
2021/12/29 03:26:39;;;;;;;10.43;7.10;;;7.80;99.90;;;;;;5040437;28;20818;-83
2021/12/29 03:29:05;;;;;;;12.50;7.47;;;7.90;99.90;;;;;;5035094;28;20140;-82
2021/12/29 03:31:33;;;;;;;17.10;8.23;;;7.90;99.90;;;;;;5040397;28;20168;-82
2021/12/29 03:33:59;;;;;;;12.65;8.57;;;7.90;99.90;;;;;;5021720;28;20552;-82
2021/12/29 03:36:25;;;;;;;13.15;9.63;;;7.90;99.90;;;;;;5040653;28;20040;-82
2021/12/29 03:38:51;;;;;;;14.43;8.57;;;7.90;99.90;;;;;;5040509;28;20779;-82
2021/12/29 03:41:18;;;;;;;13.68;8.13;;;8.00;99.90;;;;;;5022403;28;20053;-82
2021/12/29 03:43:45;;;;;;;14.55;9.07;;;8.00;99.90;;;;;;5020249;28;20057;-81
2021/12/29 03:46:12;;;;;;;15.35;9.05;;;8.00;99.90;;;;;;5040178;28;20538;-81
2021/12/29 03:48:39;;;;;;;18.23;9.68;;;8.00;99.90;;;;;;5022182;28;20114;-81
2021/12/29 03:51:05;;;;;;;16.73;9.95;;;8.00;99.90;;;;;;5040655;28;20049;-81
2021/12/29 03:53:31;;;;;;;17.38;9.90;;;8.00;99.90;;;;;;5022266;28;20045;-81
2021/12/29 03:55:57;;;;;;;18.17;9.38;;;8.00;99.90;;;;;;5022593;28;20114;-81
2021/12/29 03:58:25;;;;;;;21.73;11.52;;;8.10;99.90;;;;;;5022751;28;20779;-81
2021/12/29 04:00:56;;;;;;;22.35;12.85;;;8.10;99.90;;;;;;5021886;28;20056;-81
2021/12/29 04:03:22;;;;;;;19.73;10.05;;;8.00;99.90;;;;;;5022694;28;20150;-81
2021/12/29 04:05:47;;;;;;;22.08;11.40;;;8.00;99.90;;;;;;5022631;28;20763;-82
2021/12/29 04:08:13;;;;;;;21.08;11.45;;;8.10;99.90;;;;;;5022281;28;20132;-82
2021/12/29 04:10:39;;;;;;;22.33;11.50;;;8.10;99.90;;;;;;5040584;28;20377;-82
2021/12/29 04:13:05;;;;;;;19.85;12.18;;;8.10;99.90;;;;;;5040962;28;20074;-81
2021/12/29 04:15:31;;;;;;;23.67;12.23;;;8.10;99.90;;;;;;5021915;28;20072;-81
2021/12/29 04:17:59;;;;;;;26.65;11.80;;;8.10;99.90;;;;;;5022037;28;20127;-82
2021/12/29 04:23:17;;;;;;;24.30;13.15;;;8.10;99.90;;;;;;5039594;28;20072;-82
2021/12/29 04:25:48;;;;;;;23.52;11.57;;;8.10;99.90;;;;;;5021782;28;20203;-82
2021/12/29 04:28:20;;;;;;;20.38;12.13;;;8.10;99.90;;;;;;5021362;28;20533;-82
2021/12/29 04:30:49;;;;;;;19.90;11.93;;;8.10;99.90;;;;;;5034059;28;20425;-82
2021/12/29 04:33:16;;;;;;;27.63;13.90;;;8.10;99.90;;;;;;5039863;28;20614;-82
2021/12/29 04:35:42;;;;;;;23.70;12.77;;;8.10;99.90;;;;;;5021272;28;20049;-82
2021/12/29 04:38:07;;;;;;;25.50;13.15;;;8.20;99.90;;;;;;5040290;28;20076;-82
2021/12/29 04:40:33;;;;;;;22.70;13.00;;;8.20;99.90;;;;;;5021345;28;20080;-82
2021/12/29 04:43:00;;;;;;;18.42;11.82;;;8.20;99.90;;;;;;5032631;28;20041;-82
2021/12/29 04:45:25;;;;;;;18.08;11.13;;;8.20;99.90;;;;;;5039711;28;20048;-82
2021/12/29 04:47:51;;;;;;;22.67;11.73;;;8.20;99.90;;;;;;5039894;28;20123;-82
2021/12/29 04:50:35;;;;;;;19.00;11.27;;;8.20;99.90;;;;;;5038902;28;20948;-82
2021/12/29 04:53:03;;;;;;;17.95;12.07;;;8.20;99.90;;;;;;5017159;28;20131;-82
2021/12/29 04:55:30;;;;;;;15.88;10.93;;;8.20;99.90;;;;;;5021238;28;20052;-82
2021/12/29 04:57:58;;;;;;;18.67;12.20;;;8.20;99.90;;;;;;5020996;28;20056;-82
2021/12/29 05:00:25;;;;;;;21.85;12.27;;;8.20;99.90;;;;;;5039390;28;20945;-82
2021/12/29 05:02:52;;;;;;;22.80;11.65;;;8.20;99.90;;;;;;5039577;28;20095;-82
2021/12/29 05:05:21;;;;;;;20.17;11.85;;;8.20;99.90;;;;;;5038762;28;20049;-81
2021/12/29 05:10:33;;;;;;;21.02;11.75;;;8.20;99.90;;;;;;5039202;28;20819;-84
2021/12/29 05:12:59;;;;;;;18.88;12.48;;;8.30;99.90;;;;;;5039504;28;20110;-82
2021/12/29 05:15:25;;;;;;;22.38;12.77;;;8.10;99.90;;;;;;5039227;28;20041;-81
2021/12/29 05:17:50;;;;;;;21.05;11.85;;;8.30;99.90;;;;;;5038894;28;20056;-80
2021/12/29 05:20:16;;;;;;;19.27;11.57;;;8.30;99.90;;;;;;5039473;28;20115;-80
2021/12/29 05:22:41;;;;;;;18.80;11.88;;;8.30;99.90;;;;;;5039683;28;20139;-80
2021/12/29 05:25:07;;;;;;;18.40;11.10;;;8.30;99.90;;;;;;5038956;28;20048;-80
2021/12/29 05:27:33;;;;;;;18.25;11.13;;;8.30;99.90;;;;;;5021346;28;20048;-80
2021/12/29 05:30:02;;;;;;;21.45;12.38;;;8.30;99.90;;;;;;5021643;28;20053;-80
2021/12/29 05:32:30;;;;;;;26.05;11.55;;;8.30;99.90;;;;;;5039025;28;20052;-80
2021/12/29 05:34:56;;;;;;;19.70;12.02;;;8.30;99.90;;;;;;5039600;28;20091;-80
2021/12/29 05:37:23;;;;;;;21.80;12.30;;;8.30;99.90;;;;;;5021572;28;20049;-80
2021/12/29 05:39:49;;;;;;;18.55;11.60;;;8.30;99.90;;;;;;5038505;28;20061;-80
2021/12/29 05:42:14;;;;;;;16.92;11.18;;;8.40;99.90;;;;;;5021154;28;20067;-80
2021/12/29 05:44:40;;;;;;;21.92;12.63;;;8.30;99.90;;;;;;5021074;28;20049;-80
2021/12/29 05:47:05;;;;;;;23.25;12.73;;;8.30;99.90;;;;;;5038557;28;20122;-81
2021/12/29 05:49:31;;;;;;;24.60;12.80;;;8.30;99.90;;;;;;5021143;28;20176;-80
2021/12/29 05:51:56;;;;;;;20.25;11.55;;;8.40;99.90;;;;;;5038967;28;20045;-80
2021/12/29 05:54:22;;;;;;;17.27;11.73;;;8.40;99.90;;;;;;5020814;28;20152;-80
2021/12/29 05:56:48;;;;;;;19.95;12.93;;;8.40;99.90;;;;;;5039093;28;20045;-81
2021/12/29 05:59:13;;;;;;;21.48;12.65;;;8.40;99.90;;;;;;5039230;28;20544;-81
2021/12/29 06:01:42;;;;;;;17.02;12.45;;;8.40;99.90;;;;;;5038429;28;20048;-80
2021/12/29 06:04:08;;;;;;;22.27;13.45;;;8.40;99.90;;;;;;5039034;28;20412;-80
2021/12/29 06:06:34;;;;;;;22.67;12.73;;;8.40;99.90;;;;;;5038327;28;20045;-80
2021/12/29 06:08:59;;;;;;;22.67;12.93;;;8.40;99.90;;;;;;5023397;28;20041;-81
2021/12/29 06:11:25;;;;;;;23.90;14.27;;;8.40;99.90;;;;;;5042882;28;20045;-80
2021/12/29 06:13:51;;;;;;;19.63;11.15;;;8.40;99.90;;;;;;5042477;28;20566;-80
2021/12/29 06:16:16;;;;;;;19.42;12.00;;;8.40;99.90;;;;;;5024652;28;20053;-80
2021/12/29 06:18:42;;;;;;;19.55;12.43;;;8.40;99.90;;;;;;5042996;28;20052;-80
2021/12/29 06:21:07;;;;;;;19.67;11.63;;;8.30;99.90;;;;;;5041989;28;20053;-80
2021/12/29 06:23:33;;;;;;;18.63;13.10;;;8.40;99.90;;;;;;5025125;28;20056;-80
2021/12/29 06:25:58;;;;;;;17.00;11.57;;;8.40;99.90;;;;;;5024564;28;20055;-80
2021/12/29 06:28:24;;;;;;;17.67;11.50;;;8.30;99.90;;;;;;5024022;28;20599;-80
2021/12/29 06:30:49;;;;;;;19.63;11.82;;;8.40;99.90;;;;;;5024548;28;20056;-80
2021/12/29 06:33:15;;;;;;;14.90;9.35;;;8.40;99.90;;;;;;5042340;28;20128;-80
2021/12/29 06:35:41;;;;;;;14.23;9.80;;;8.30;99.90;;;;;;5023766;28;20559;-80
2021/12/29 06:38:06;;;;;;;23.55;11.10;;;8.30;99.90;;;;;;5042352;28;20454;-80
2021/12/29 06:40:32;;;;;;;16.65;10.63;;;8.40;99.90;;;;;;5024060;28;20060;-80
2021/12/29 06:42:57;;;;;;;14.38;10.68;;;8.30;99.90;;;;;;5023824;28;20820;-80
2021/12/29 06:45:23;;;;;;;17.33;12.10;;;8.40;99.90;;;;;;5042547;28;20044;-80
2021/12/29 06:47:49;;;;;;;22.35;11.60;;;8.30;99.90;;;;;;5042132;28;20120;-80
2021/12/29 06:50:14;;;;;;;19.70;11.95;;;8.40;99.90;;;;;;5023272;28;20045;-80
2021/12/29 06:52:40;;;;;;;18.95;11.32;;;8.50;99.90;;;;;;5021466;28;20139;-80
2021/12/29 06:55:06;;;;;;;21.88;10.75;;;8.40;99.90;;;;;;5038885;28;20048;-80
2021/12/29 06:57:32;;;;;;;16.95;10.32;;;8.40;99.90;;;;;;5038384;28;20132;-80
2021/12/29 06:59:58;;;;;;;21.90;10.35;;;8.40;99.90;;;;;;5020502;28;20872;-80
2021/12/29 07:02:23;;;;;;;15.35;10.93;;;8.40;99.90;;;;;;5038120;28;20530;-80
2021/12/29 07:04:49;;;;;;;18.95;11.20;;;8.40;99.90;;;;;;5019152;28;20059;-80
2021/12/29 07:07:14;;;;;;;21.63;12.27;;;8.40;99.90;;;;;;5037372;28;20040;-80
2021/12/29 07:09:40;;;;;;;17.33;10.23;;;8.40;99.90;;;;;;5019591;28;20662;-80
2021/12/29 07:12:06;;;;;;;18.48;10.40;;;8.50;99.90;;;;;;5036209;28;20048;-80
2021/12/29 07:14:32;;;;;;;19.25;10.30;;;8.40;99.90;;;;;;5038183;28;20068;-80
2021/12/29 07:16:57;;;;;;;21.52;11.65;;;8.40;99.90;;;;;;5036541;28;20154;-80
2021/12/29 07:19:23;;;;;;;25.17;13.35;;;8.50;99.90;;;;;;5036639;28;20052;-80
2021/12/29 07:21:49;;;;;;;19.23;11.27;;;8.50;99.90;;;;;;5036465;28;20041;-77
2021/12/29 07:24:16;;;;;;;19.92;10.95;;;8.50;99.90;;;;;;5036627;28;20044;-78
2021/12/29 07:26:42;;;;;;;18.35;9.52;;;8.50;99.90;;;;;;5019376;28;20160;-78
2021/12/29 07:29:08;;;;;;;22.15;11.13;;;8.50;99.90;;;;;;5019599;28;20049;-79
2021/12/29 07:31:34;;;;;;;18.05;9.60;;;8.50;99.90;;;;;;5015741;28;20099;-78
2021/12/29 07:34:00;;;;;;;27.70;12.50;;;8.50;99.90;;;;;;5018459;28;20591;-78
2021/12/29 07:36:26;;;;;;;16.80;9.85;;;8.50;99.90;;;;;;5017929;28;20167;-78
2021/12/29 07:38:52;;;;;;;21.40;11.02;;;8.50;99.90;;;;;;5019026;28;20206;-77
2021/12/29 07:41:17;;;;;;;17.02;10.40;;;8.50;99.90;;;;;;5038038;28;20475;-79
2021/12/29 07:43:43;;;;;;;18.90;11.27;;;8.50;99.90;;;;;;5037222;28;20049;-78
2021/12/29 07:46:11;;;;;;;20.05;10.52;;;8.50;99.90;;;;;;5012301;28;20053;-77
2021/12/29 07:48:37;;;;;;;16.40;10.85;;;7.80;99.90;;;;;;5013039;28;20122;-77
2021/12/29 07:51:05;;;;;;;16.25;9.73;;;8.50;99.90;;;;;;5037613;28;20049;-71
2021/12/29 07:53:31;;;;;;;21.90;11.05;;;8.50;99.90;;;;;;5035786;28;20041;-77
2021/12/29 07:55:57;;;;;;;18.67;10.52;;;8.60;99.90;;;;;;5036306;28;20052;-77
2021/12/29 07:58:22;;;;;;;22.00;10.50;;;8.60;99.90;;;;;;5017569;28;20052;-78
2021/12/29 08:00:48;;;;;;;18.98;9.00;;;8.60;99.90;;;;;;5017700;28;20041;-80
2021/12/29 08:03:15;;;;;;;12.70;8.68;;;8.60;99.90;;;;;;5036391;28;20037;-80
2021/12/29 08:05:41;;;;;;;22.23;9.93;;;8.60;99.90;;;;;;5036569;28;20495;-80
2021/12/29 08:08:07;;;;;;;18.52;8.75;;;8.60;99.90;;;;;;5017426;28;20041;-80
2021/12/29 08:10:37;;;;;;;16.27;8.85;;;8.60;99.90;;;;;;5032774;28;20052;-80
2021/12/29 08:13:04;;;;;;;19.83;9.00;;;8.60;99.90;;;;;;5016943;28;20037;-80
2021/12/29 08:15:32;;;;;;;11.98;7.80;;;8.60;99.90;;;;;;5016263;28;20514;-81
2021/12/29 08:17:58;;;;;;;16.25;8.60;;;8.60;99.90;;;;;;5033281;28;20052;-80
2021/12/29 08:20:24;;;;;;;14.60;8.98;;;8.60;99.90;;;;;;5033043;28;20048;-80
2021/12/29 08:22:51;;;;;;;18.67;9.35;;;8.60;99.90;;;;;;5034738;28;20180;-80
2021/12/29 08:25:18;;;;;;;14.68;9.40;;;8.60;99.90;;;;;;5033780;28;21277;-80
2021/12/29 08:27:45;;;;;;;14.57;9.70;;;8.60;99.90;;;;;;5033216;28;20073;-80
2021/12/29 08:30:11;;;;;;;12.57;8.23;;;8.60;99.90;;;;;;5034630;28;20619;-80
2021/12/29 08:32:37;;;;;;;13.10;7.55;;;8.60;99.90;;;;;;5016397;28;20502;-80
2021/12/29 08:35:04;;;;;;;17.17;9.15;;;8.70;99.90;;;;;;5015836;28;20076;-80
2021/12/29 08:37:29;;;;;;;14.60;8.23;;;8.70;99.90;;;;;;5016102;28;20054;-80
2021/12/29 08:39:55;;;;;;;18.33;9.10;;;8.70;99.90;;;;;;5034134;28;20092;-80
2021/12/29 08:42:22;;;;;;;17.85;10.00;;;8.60;99.90;;;;;;5016038;28;20056;-80
2021/12/29 08:44:47;;;;;;;15.70;7.72;;;8.60;99.90;;;;;;5032876;28;20041;-80
2021/12/29 08:47:13;;;;;;;13.60;8.68;;;8.60;99.90;;;;;;5033926;28;20098;-81
2021/12/29 08:49:39;;;;;;;15.43;9.63;;;8.60;99.90;;;;;;5015331;28;20037;-81
2021/12/29 08:52:05;;;;;;;24.48;9.90;;;8.60;99.90;;;;;;5015125;28;20059;-80
2021/12/29 08:54:31;;;;;;;14.23;9.70;;;8.70;99.90;;;;;;5015743;28;20041;-80
2021/12/29 08:56:56;;;;;;;22.30;10.15;;;8.60;99.90;;;;;;5017433;28;20094;-80
2021/12/29 08:59:22;;;;;;;19.33;10.15;;;8.70;99.90;;;;;;5019016;28;20041;-79
2021/12/29 09:01:48;;;;;;;33.63;12.57;;;8.70;99.90;;;;;;5018804;28;20052;-79
2021/12/29 09:04:14;;;;;;;24.27;11.60;;;8.70;99.90;;;;;;5035818;28;20664;-79
2021/12/29 09:06:40;;;;;;;21.70;9.93;;;8.70;99.90;;;;;;5019130;28;20045;-80
2021/12/29 09:09:05;;;;;;;14.85;10.63;;;8.70;99.90;;;;;;5012895;28;20059;-80
2021/12/29 09:11:31;;;;;;;17.20;10.32;;;8.70;99.90;;;;;;5036227;28;20045;-81
2021/12/29 09:13:59;;;;;;;15.35;8.50;;;8.70;99.90;;;;;;5018266;28;20067;-80
2021/12/29 09:16:28;;;;;;;22.58;10.98;;;8.70;99.90;;;;;;5035886;28;20148;-81
2021/12/29 09:18:54;;;;;;;19.38;10.32;;;8.70;99.90;;;;;;5019066;28;20118;-81
2021/12/29 09:21:20;;;;;;;19.13;11.20;;;8.70;99.90;;;;;;5038969;28;20119;-80
2021/12/29 09:23:46;;;;;;;16.73;8.32;;;8.80;99.90;;;;;;5020272;28;20799;-80
2021/12/29 09:26:14;;;;;;;16.35;8.20;;;8.80;99.90;;;;;;5038326;28;20160;-80
2021/12/29 09:28:41;;;;;;;18.42;10.45;;;8.80;99.90;;;;;;5020691;28;20047;-80
2021/12/29 09:31:07;;;;;;;13.85;7.95;;;8.80;99.90;;;;;;5020707;28;20064;-80
2021/12/29 09:33:33;;;;;;;17.77;8.50;;;8.80;99.90;;;;;;5038922;28;20906;-80
2021/12/29 09:36:02;;;;;;;22.35;9.07;;;8.80;99.90;;;;;;5039205;28;20698;-80
2021/12/29 09:38:32;;;;;;;13.23;8.48;;;8.80;99.90;;;;;;5020237;28;20049;-80
2021/12/29 09:40:58;;;;;;;14.70;9.15;;;8.80;99.90;;;;;;5038647;28;20144;-80
2021/12/29 09:43:24;;;;;;;18.27;8.15;;;8.90;99.90;;;;;;5042246;28;20175;-81
2021/12/29 09:45:51;;;;;;;19.50;9.38;;;8.90;99.90;;;;;;5042254;28;20733;-80
2021/12/29 09:48:17;;;;;;;15.30;9.20;;;8.90;99.90;;;;;;5043021;28;20143;-80
2021/12/29 09:50:43;;;;;;;27.70;11.55;;;8.90;99.90;;;;;;5024702;28;20048;-80
2021/12/29 09:53:10;;;;;;;25.00;11.05;;;8.90;99.90;;;;;;5041464;28;20056;-80
2021/12/29 09:55:36;;;;;;;19.67;10.60;;;8.90;99.90;;;;;;5041500;28;20053;-80
2021/12/29 09:58:04;;;;;;;36.10;12.77;;;9.00;99.90;;;;;;5021829;28;20067;-81
2021/12/29 10:00:41;;;;;;;29.98;11.23;;;9.00;99.90;;;;;;5040435;28;20792;-81
2021/12/29 10:03:10;;;;;;;36.15;10.27;;;9.00;99.90;;;;;;5040186;28;20056;-81
2021/12/29 10:05:38;;;;;;;22.83;9.68;;;9.00;99.90;;;;;;5020900;28;20099;-81
2021/12/29 10:08:07;;;;;;;28.48;10.20;;;9.00;99.90;;;;;;5039557;28;20045;-81
2021/12/29 10:10:36;;;;;;;23.90;9.23;;;9.00;99.90;;;;;;5038140;28;20866;-81
2021/12/29 10:13:02;;;;;;;31.88;11.15;;;9.00;99.90;;;;;;5040762;28;20053;-80
2021/12/29 10:15:35;;;;;;;24.45;8.93;;;9.00;99.90;;;;;;5023708;28;20045;-80
2021/12/29 10:18:07;;;;;;;23.05;8.30;;;9.10;99.90;;;;;;5024479;28;20132;-80
2021/12/29 10:20:33;;;;;;;17.08;8.20;;;9.10;99.90;;;;;;5041550;28;20048;-80
2021/12/29 10:22:59;;;;;;;14.70;8.52;;;9.10;99.90;;;;;;5042444;28;20044;-80
2021/12/29 10:25:25;;;;;;;17.23;9.32;;;9.20;99.90;;;;;;5024101;28;20075;-80
2021/12/29 10:27:52;;;;;;;14.68;7.35;;;9.20;99.90;;;;;;5041559;28;20380;-80
2021/12/29 10:30:29;;;;;;;12.40;7.97;;;9.30;99.90;;;;;;5022802;28;20102;-80
2021/12/29 10:32:57;;;;;;;17.60;8.32;;;9.40;99.90;;;;;;5023149;28;20148;-80
2021/12/29 10:35:29;;;;;;;11.73;8.02;;;9.30;99.90;;;;;;5022623;28;20116;-80
2021/12/29 10:38:09;;;;;;;8.20;5.85;;;9.40;99.90;;;;;;5023157;28;20579;-80
2021/12/29 10:40:35;;;;;;;9.43;6.07;;;9.40;99.90;;;;;;5040609;28;20065;-80
2021/12/29 10:43:01;;;;;;;11.75;5.68;;;9.40;99.90;;;;;;5022350;28;20056;-80
2021/12/29 10:45:29;;;;;;;10.23;7.22;;;9.30;99.90;;;;;;5022209;28;20119;-80
2021/12/29 10:47:55;;;;;;;10.63;6.43;;;9.40;99.90;;;;;;5022319;28;20145;-80
2021/12/29 10:50:20;;;;;;;10.43;6.43;;;9.40;99.90;;;;;;5022488;28;20044;-80
2021/12/29 10:52:49;;;;;;;9.00;6.18;;;9.30;99.90;;;;;;5039900;28;20041;-79
2021/12/29 10:55:31;;;;;;;8.13;5.25;;;9.30;99.90;;;;;;5037936;28;20132;-80
2021/12/29 10:58:18;;;;;;;11.57;5.80;;;9.30;99.90;;;;;;5040285;28;20049;-80
2021/12/29 11:00:56;;;;;;;8.32;5.72;;;9.30;99.90;;;;;;5021992;28;20053;-80
2021/12/29 11:03:22;;;;;;;10.90;6.25;;;9.40;99.90;;;;;;5015134;28;20488;-80
2021/12/29 11:05:58;;;;;;;8.60;5.35;;;9.30;99.90;;;;;;5039593;28;20083;-79
2021/12/29 11:08:47;;;;;;;10.27;5.65;;;9.40;99.90;;;;;;5022730;28;20068;-80
2021/12/29 11:11:13;;;;;;;9.55;6.13;;;9.30;99.90;;;;;;5031358;28;20724;-79
2021/12/29 11:13:40;;;;;;;9.00;5.97;;;9.30;99.90;;;;;;5022123;28;20492;-80
2021/12/29 11:16:05;;;;;;;10.48;6.40;;;9.30;99.90;;;;;;5039944;28;20059;-80
2021/12/29 11:18:51;;;;;;;9.02;6.43;;;9.30;99.90;;;;;;5022347;28;20045;-78
2021/12/29 11:21:31;;;;;;;9.35;5.93;;;9.30;99.90;;;;;;5040556;28;20078;-78
2021/12/29 11:24:20;;;;;;;6.97;5.32;;;9.30;99.90;;;;;;5020724;28;20217;-78
2021/12/29 11:26:48;;;;;;;9.75;5.55;;;9.30;99.90;;;;;;5018852;28;20048;-79
2021/12/29 11:29:16;;;;;;;12.10;6.40;;;9.30;99.90;;;;;;5015967;28;20046;-78
2021/12/29 11:31:51;;;;;;;12.02;6.25;;;9.30;99.90;;;;;;5018853;28;20430;-78
2021/12/29 11:34:20;;;;;;;9.95;5.88;;;9.40;99.90;;;;;;5038562;28;20566;-78
2021/12/29 11:36:59;;;;;;;11.10;5.18;;;9.30;99.90;;;;;;5035638;28;20048;-78
2021/12/29 11:39:25;;;;;;;12.07;5.63;;;9.30;99.90;;;;;;5015995;28;20131;-78
2021/12/29 11:41:51;;;;;;;11.57;7.07;;;9.30;99.90;;;;;;5037736;28;20041;-73
2021/12/29 11:44:17;;;;;;;13.00;6.50;;;9.30;99.90;;;;;;5020987;28;20126;-75
2021/12/29 11:46:43;;;;;;;12.60;5.43;;;9.30;99.90;;;;;;5039675;28;20388;-79
2021/12/29 11:49:08;;;;;;;14.88;6.25;;;9.40;99.90;;;;;;5020689;28;20059;-78
2021/12/29 11:51:51;;;;;;;16.45;7.00;;;9.50;99.90;;;;;;5020477;28;20052;-79
2021/12/29 11:54:24;;;;;;;11.05;6.07;;;9.40;99.90;;;;;;5015988;28;20118;-78
2021/12/29 11:56:50;;;;;;;16.50;5.88;;;9.50;99.90;;;;;;5020568;28;20049;-78
2021/12/29 11:59:15;;;;;;;10.52;5.65;;;9.50;99.90;;;;;;5020953;28;20059;-78
2021/12/29 12:01:41;;;;;;;11.38;6.20;;;9.60;99.90;;;;;;5021801;28;20063;-78
2021/12/29 12:04:11;;;;;;;18.00;6.25;;;9.60;99.90;;;;;;5021195;28;20057;-78
2021/12/29 12:06:41;;;;;;;10.70;6.78;;;9.60;99.90;;;;;;5039131;28;20057;-78
2021/12/29 12:09:19;;;;;;;18.88;5.85;;;9.70;99.90;;;;;;5021487;28;20056;-78
2021/12/29 12:11:55;;;;;;;11.88;6.22;;;9.70;99.90;;;;;;5039360;28;20127;-78
2021/12/29 12:14:24;;;;;;;9.13;5.93;;;9.70;99.90;;;;;;5021063;28;20045;-78
2021/12/29 12:16:58;;;;;;;20.42;6.95;;;9.70;99.90;;;;;;5039872;28;20063;-78
2021/12/29 12:19:26;;;;;;;14.00;5.72;;;9.70;99.90;;;;;;5020631;28;20048;-78
2021/12/29 12:22:05;;;;;;;12.93;6.30;;;9.70;99.90;;;;;;5021877;28;20497;-78
2021/12/29 12:24:32;;;;;;;8.63;5.70;;;9.80;99.90;;;;;;5021667;28;20488;-77
2021/12/29 12:26:59;;;;;;;14.73;6.53;;;9.70;99.90;;;;;;5021050;28;20729;-78
2021/12/29 12:29:38;;;;;;;10.95;6.05;;;9.80;99.90;;;;;;5021748;28;20053;-78
2021/12/29 12:32:06;;;;;;;9.68;5.50;;;9.80;99.90;;;;;;5039772;28;20052;-78
2021/12/29 12:34:34;;;;;;;10.50;5.15;;;9.80;99.90;;;;;;5021310;28;20140;-77
2021/12/29 12:37:01;;;;;;;14.60;5.90;;;9.80;99.90;;;;;;5021556;28;20048;-78
2021/12/29 12:39:28;;;;;;;9.85;5.00;;;9.70;99.90;;;;;;5039076;28;20045;-77
2021/12/29 12:41:56;;;;;;;17.77;6.90;;;9.70;99.90;;;;;;5020984;28;20102;-78
2021/12/29 12:44:36;;;;;;;9.52;4.82;;;9.70;99.90;;;;;;5021737;28;20052;-77
2021/12/29 12:47:11;;;;;;;7.78;5.47;;;9.60;99.90;;;;;;5021805;28;20055;-77
2021/12/29 12:49:47;;;;;;;12.45;4.53;;;9.60;99.90;;;;;;5020742;28;20122;-77